Indianapolis, IN

8:46 AM EDT on August 20, 2014 (GMT -0400)
Shelbyville Municipal | Change Station
CLOSE
Current Station
Airport
Location: Shelbyville,
Elevation: 804 ft
Nearby Weather Stations

Elev 804 ft 39.58 °N, 85.80 °W | Updated 53 minutes ago

Fog
Fog
68 °F
Feels Like 68 °F
N
5
Wind Variable Wind from South

Today
High -- | Low -- °F
--% Chance of Precip.
Yesterday
High -- | Low -- °F
Precip. -- in
7:01 AM 8:33 PM
Waning Crescent, 22% visible
Pressure 29.88 in
Visibility 0.2 miles
Clouds
Dew Point 65 °F
Humidity 90%
Rainfall 0.27 in
Snow Depth Not available.
UV Not available.
Pollen 9.90 out of 12
Ozone Good
PM2.5 Good
Flu Activity Not available.
METAR KGEZ 201153Z AUTO 18004KT M1/4SM FG VV002 20/18 A2990 RMK AO2 SLP117 7//// T02000183 10200 20178 51013 $

More Conditions Fewer Conditions

Pressure 29.88 in
Visibility 0.2 miles
Clouds
Dew Point 65 °F
Humidity 90%
Rainfall 0.27 in
Snow Depth Not available.
UV Not available.
Pollen 9.90 out of 12
Ozone Good
PM2.5 Good
Flu Activity Not available.
METAR KGEZ 201153Z AUTO 18004KT M1/4SM FG VV002 20/18 A2990 RMK AO2 SLP117 7//// T02000183 10200 20178 51013 $

More Conditions Fewer Conditions

10-Day Weather Forecast

Almanac

Astronomy

Aug. 20, 2014 Rise Set
Actual Time 7:01 AM EDT 8:33 PM EDT
Civil Twilight 6:32 AM EDT 9:02 PM EDT
Nautical Twilight 5:58 AM EDT 9:36 PM EDT
Astronomical Twilight 5:21 AM EDT 10:12 PM EDT
Moon 2:40 AM EDT 5:17 PM EDT
Length of Visible Light 14h 29m
Length of Day
13h 32m
Tomorrow will be 2m 23s shorter.
Waning Crescent, 22% of the Moon is Illuminated
Today
Waning Crescent
Aug 25
New
Sep 2
First Quarter
Sep 8
Full
Sep 15
Last Quarter

Today's Extremes

State Highs State Lows

Community

WunderPhotos

Upload Photos

1,745,618 photos uploaded!

Nearby

Air Quality

  Air Quality AQ Index Pollutant
Yesterday Good
PM10
Yesterday Good
OZONE
Current Good
PM2.5
Current Good
OZONE
Wednesday Moderate
PM2.5
Wednesday Good
OZONE

Snow Depth

Station Depth Elevation
No new snow has been reported.

Earthquake Activity

City Distance Mag. Time & Date
No recent earthquake activity has been reported nearby.
Minimum magnitude displayed is 2.5.

Coastal Water Temperatures

Place Temperature
No Stations Reporting

Nearby Weather Stations